Terminal Aerodrome Forecast
Issued by NWS

Home | Current Version | Previous Version | Text Only | Print | Product List | Glossary Off
Versions: 1 2 3 4 5 6 7 8 9 10 11 12 13 14 15

000
FTUS43 KDVN 060602 AAA
TAFBRL
TAF AMD
KBRL 060602Z 0606/0706 16009KT 5SM BR SKC
     FM060800 15010KT 4SM BR SCT150
     FM061500 19012KT P6SM SCT040
     FM061900 18013KT P6SM VCSH SCT040 SCT120
      TEMPO 0622/0702 4SM -TSRA BR OVC035CB
     FM070200 21009KT 6SM -TSRA BR OVC035CB=

USA.gov is the U.S. government's official web portal to all federal, state and local government web resources and services.